Latest Weather Observations for Cape Moreton

IDQ60801

Issued at 10:05 pm EST Tuesday 23 September 2014 (issued every 30 minutes, with the page automatically refreshed every 10 minutes)

About weather observations | Map of weather stations | Latest weather observations for QLD | Other Formats
Station Details ID: 040043 Name: CAPE MORETON LIGHTHOUSE Lat: -27.03 Lon: 153.47 Height: 99.9 m
Data from the previous 72 hours. | See also: Recent months at Cape Moreton
Date/Time
EST
Temp
°C
App
Temp
°C
Dew
Point
Rel
Hum
%
Delta-T
°C
Wind Press
QNH
hPa
Press
MSL
hPa
Rain
since 9 am
mm
Dir
 
Spd
km/h
Gust
km/h
Spd
kts
Gust
kts
23/10:00pm 18.8 14.2 13.4 71 3.1 E 30 35 16 19 1025.9 1025.6 0.0
23/09:30pm 19.0 14.1 13.6 71 3.1 E 32 37 17 20 1026.0 1025.7 0.0
23/09:00pm 19.0 14.1 13.6 71 3.1 E 32 39 17 21 1026.1 1025.8 0.0
23/08:30pm 18.9 13.3 14.4 75 2.6 E 37 43 20 23 1026.0 1025.7 0.0
23/08:00pm 18.5 14.1 14.0 75 2.6 ESE 30 43 16 23 1026.0 1025.7 0.0
23/07:30pm 19.6 14.6 13.3 67 3.6 ESE 32 35 17 19 1025.8 1025.5 0.0
23/07:00pm 19.3 14.5 12.8 66 3.7 ESE 30 39 16 21 1025.7 1025.4 0.0
23/06:30pm 19.3 14.2 13.2 68 3.5 ESE 32 37 17 20 1025.5 1025.2 0.0
23/06:00pm 19.3 13.9 12.3 64 3.9 ESE 32 37 17 20 1025.4 1025.1 0.0
23/05:30pm 19.3 13.8 12.3 64 3.9 ESE 33 41 18 22 1025.1 1024.8 0.0
23/05:00pm 19.4 13.6 12.7 65 3.8 ESE 35 41 19 22 1025.0 1024.7 0.0
23/04:30pm 19.7 13.7 12.0 61 4.3 ESE 35 41 19 22 1024.9 1024.6 0.0
23/04:00pm 19.6 13.2 13.3 67 3.6 ESE 39 44 21 24 1024.9 1024.6 0.0
23/03:30pm 20.1 14.8 12.6 62 4.2 ESE 32 39 17 21 1024.9 1024.6 0.0
23/03:00pm 20.5 15.9 12.2 59 4.6 ESE 28 37 15 20 1025.2 1024.9 0.0
23/02:30pm 20.9 15.9 12.1 57 5.0 ESE 30 33 16 18 1025.3 1025.0 0.0
23/02:00pm 21.0 16.5 11.3 54 5.4 ESE 26 32 14 17 1025.5 1025.2 0.0
23/01:30pm 20.8 15.7 10.6 52 5.6 ESE 28 33 15 18 1025.7 1025.4 0.0
23/01:00pm 21.2 16.6 11.0 52 5.6 ESE 26 32 14 17 1026.3 1026.0 0.0
23/12:30pm 21.0 16.5 10.2 50 5.9 ESE 24 30 13 16 1026.6 1026.3 0.0
23/12:00pm 21.4 15.8 10.3 49 6.0 ESE 30 35 16 19 1027.0 1026.8 0.0
23/11:30am 21.2 15.9 11.2 53 5.5 ESE 30 37 16 20 1027.4 1027.2 0.0
23/11:00am 21.6 15.9 11.9 54 5.4 ESE 33 41 18 22 1028.0 1027.8 0.0
23/10:30am 21.7 16.0 11.7 53 5.6 ESE 33 41 18 22 1028.3 1028.1 0.0
23/10:00am 21.0 14.6 10.8 52 5.6 E 35 43 19 23 1028.2 1028.0 0.0
23/09:30am 20.7 14.2 10.5 52 5.6 ESE 35 44 19 24 1028.2 1028.0 0.0
23/09:00am 20.7 14.1 11.3 55 5.2 ESE 37 44 20 24 1028.1 1027.9 0.8
23/08:30am 20.3 12.7 10.4 53 5.4 ESE 41 48 22 26 1028.0 1027.8 0.8
23/08:00am 20.1 12.2 10.8 55 5.1 ESE 43 52 23 28 1027.9 1027.7 0.8
23/07:30am 19.6 11.7 10.9 57 4.7 ESE 43 48 23 26 1027.5 1027.3 0.8
23/07:00am 18.9 10.8 11.9 64 3.9 ESE 46 54 25 29 1026.9 1026.7 0.8
23/06:30am 18.4 10.6 11.7 65 3.7 ESE 44 54 24 29 1026.3 1026.0 0.8
23/06:00am 18.3 10.5 11.8 66 3.6 ESE 44 54 24 29 1026.0 1025.7 0.8
23/05:30am 18.4 10.4 11.0 62 4.0 ESE 44 54 24 29 1025.9 1025.6 0.8
23/05:00am 18.6 10.4 11.7 64 3.8 ESE 46 54 25 29 1025.7 1025.4 0.8
23/04:30am 18.6 10.3 11.4 63 4.0 ESE 46 56 25 30 1025.2 1024.9 0.8
23/04:00am 18.4 9.8 11.5 64 3.8 ESE 48 56 26 30 1025.0 1024.7 0.8
23/03:30am 18.4 9.9 11.9 66 3.6 ESE 48 56 26 30 1024.9 1024.6 0.8
23/03:00am 18.4 10.2 12.8 70 3.1 ESE 48 56 26 30 1024.8 1024.5 0.8
23/02:30am 18.2 10.0 12.9 71 3.0 ESE 48 57 26 31 1024.9 1024.6 0.8
23/02:00am 18.2 10.5 13.3 73 2.8 ESE 46 56 25 30 1025.2 1024.9 0.8
23/01:30am 17.0 9.3 14.3 84 1.6 ESE 48 61 26 33 1025.7 1025.4 0.8
23/01:00am 17.5 11.3 15.0 85 1.5 ESE 41 50 22 27 1025.9 1025.6 0.6
23/12:59am 17.5 11.4 15.1 86 1.4 ESE 41 50 22 27 1025.9 1025.6 0.6
23/12:56am 16.8 13.0 14.6 87 1.3 E 28 46 15 25 1026.0 1025.7 0.6
23/12:52am 16.5 12.5 14.2 86 1.3 ENE 28 33 15 18 1026.2 1025.9 0.6
23/12:30am 18.7 11.5 13.1 70 3.2 E 43 59 23 32 1025.9 1025.6 0.0
23/12:00am 18.3 11.3 14.2 77 2.4 E 44 52 24 28 1026.3 1026.0 0.0
 
Date/Time
EST
Temp
°C
App
Temp
°C
Dew
Point
Rel
Hum
%
Delta-T
°C
Wind Press
QNH
hPa
Press
MSL
hPa
Rain
since 9 am
mm
Dir
 
Spd
km/h
Gust
km/h
Spd
kts
Gust
kts
22/11:30pm 17.7 10.9 14.8 83 1.7 E 44 54 24 29 1026.2 1025.9 0.0
22/11:00pm 18.6 11.2 13.2 71 3.0 ESE 44 54 24 29 1026.8 1026.6 0.0
22/10:30pm 18.3 10.7 13.6 74 2.7 E 46 54 25 29 1026.7 1026.5 0.0
22/10:07pm 17.8 10.3 15.1 84 1.6 E 48 56 26 30 1027.0 1026.8 0.0
22/10:00pm 17.4 12.9 14.9 85 1.4 SE 32 43 17 23 1027.3 1027.1 0.0
22/09:55pm 17.6 12.5 14.9 84 1.6 ESE 35 54 19 29 1027.2 1027.0 0.0
22/09:30pm 17.9 11.0 14.6 81 1.9 ESE 44 54 24 29 1027.1 1026.9 0.0
22/09:00pm 18.8 12.3 13.9 73 2.8 E 41 52 22 28 1027.2 1027.0 0.0
22/08:30pm 19.0 11.9 13.4 70 3.2 ESE 43 50 23 27 1027.3 1027.1 0.0
22/08:00pm 18.5 11.6 14.0 75 2.6 ESE 43 50 23 27 1027.0 1026.8 0.0
22/07:30pm 18.8 10.9 13.9 73 2.8 ESE 48 56 26 30 1026.3 1026.0 0.0
22/07:00pm 18.9 11.1 13.1 69 3.3 ESE 46 54 25 29 1026.0 1025.7 0.0
22/06:30pm 18.9 11.2 12.2 65 3.7 ESE 44 50 24 27 1026.0 1025.7 0.0
22/06:00pm 18.9 11.5 12.6 67 3.5 ESE 43 48 23 26 1026.1 1025.8 0.0
22/05:30pm 19.0 12.0 12.5 66 3.6 ESE 41 48 22 26 1025.8 1025.5 0.0
22/05:00pm 19.1 11.7 12.4 65 3.7 ESE 43 50 23 27 1025.6 1025.3 0.0
22/04:30pm 19.2 11.1 12.0 63 4.0 ESE 46 54 25 29 1025.3 1025.0 0.0
22/04:00pm 19.3 11.1 11.8 62 4.1 ESE 46 56 25 30 1025.1 1024.8 0.0
22/03:30pm 19.4 11.9 12.7 65 3.8 ESE 44 52 24 28 1025.2 1024.9 0.0
22/03:00pm 19.6 11.9 12.1 62 4.2 ESE 44 56 24 30 1025.0 1024.7 0.0
22/02:30pm 20.0 12.2 11.7 59 4.6 ESE 44 50 24 27 1025.2 1024.9 0.0
22/02:00pm 19.9 12.1 11.9 60 4.4 ESE 44 52 24 28 1025.1 1024.8 0.0
22/01:30pm 20.2 12.4 11.7 58 4.7 ESE 44 52 24 28 1025.6 1025.3 0.0
22/01:00pm 20.2 11.9 11.4 57 4.8 ESE 46 56 25 30 1025.7 1025.4 0.0
22/12:30pm 20.6 12.8 11.8 57 4.9 ESE 44 50 24 27 1026.0 1025.7 0.0
22/12:00pm 20.5 12.9 12.5 60 4.5 ESE 44 52 24 28 1026.3 1026.0 0.0
22/11:30am 21.2 13.8 13.1 60 4.6 ESE 44 54 24 29 1026.6 1026.3 0.0
22/11:00am 20.9 13.4 12.6 59 4.7 ESE 44 52 24 28 1027.0 1026.8 0.0
22/10:30am 20.3 12.3 12.5 61 4.4 ESE 46 54 25 29 1027.1 1026.9 0.0
22/10:00am 20.6 12.8 13.1 62 4.3 ESE 46 57 25 31 1026.9 1026.7 0.0
22/09:30am 20.7 12.9 12.9 61 4.4 ESE 46 56 25 30 1026.7 1026.5 0.0
22/09:00am 19.8 12.2 12.3 62 4.2 ESE 44 54 24 29 1026.5 1026.2 12.0
22/08:30am 20.1 12.0 12.1 60 4.5 ESE 46 54 25 29 1026.7 1026.5 12.0
22/08:00am 20.0 11.5 12.0 60 4.4 ESE 48 56 26 30 1026.3 1026.0 12.0
22/07:30am 19.7 10.9 12.2 62 4.2 ESE 50 57 27 31 1025.9 1025.6 12.0
22/07:00am 19.5 10.7 9.7 53 5.2 ESE 46 54 25 29 1025.5 1025.2 12.0
22/06:30am 19.0 11.3 12.0 64 3.9 ESE 44 50 24 27 1025.4 1025.1 12.0
22/06:00am 18.6 10.7 10.7 60 4.3 ESE 43 50 23 27 1025.3 1025.0 12.0
22/05:30am 18.2 10.4 11.3 64 3.8 ESE 43 52 23 28 1025.0 1024.7 12.0
22/05:00am 18.1 9.7 11.2 64 3.7 ESE 46 54 25 29 1024.7 1024.4 12.0
22/04:30am 18.1 9.5 11.7 66 3.5 ESE 48 57 26 31 1024.3 1024.0 12.0
22/04:00am 18.2 9.9 11.5 65 3.7 ESE 46 56 25 30 1024.2 1023.9 12.0
22/03:30am 17.8 9.6 12.9 73 2.8 ESE 48 57 26 31 1024.2 1023.9 12.0
22/03:00am 17.3 7.9 12.6 74 2.6 ESE 54 69 29 37 1024.1 1023.8 12.0
22/02:54am 17.9 9.8 13.2 74 2.7 ESE 48 67 26 36 1023.9 1023.6 12.0
22/02:30am 17.8 9.1 12.7 72 2.9 ESE 50 59 27 32 1024.3 1024.0 12.0
22/02:00am 18.1 10.2 11.4 65 3.7 ESE 44 52 24 28 1024.9 1024.6 12.0
22/01:30am 18.2 9.8 11.0 63 3.9 ESE 46 52 25 28 1025.2 1024.9 12.0
22/01:00am 18.2 10.0 11.7 66 3.6 ESE 46 54 25 29 1025.5 1025.2 12.0
22/12:30am 18.4 9.3 11.2 63 3.9 ESE 50 56 27 30 1025.6 1025.3 12.0
22/12:00am 18.5 10.2 11.3 63 3.9 ESE 46 57 25 31 1025.7 1025.4 12.0
 
Date/Time
EST
Temp
°C
App
Temp
°C
Dew
Point
Rel
Hum
%
Delta-T
°C
Wind Press
QNH
hPa
Press
MSL
hPa
Rain
since 9 am
mm
Dir
 
Spd
km/h
Gust
km/h
Spd
kts
Gust
kts
21/11:30pm 18.4 10.7 12.2 67 3.5 ESE 44 54 24 29 1025.9 1025.6 12.0
21/11:00pm 18.3 10.7 12.5 69 3.2 ESE 44 56 24 30 1026.0 1025.7 12.0
21/10:30pm 17.8 10.1 12.0 69 3.2 ESE 44 52 24 28 1026.0 1025.7 12.0
21/10:00pm 18.2 10.2 13.5 74 2.7 ESE 48 57 26 31 1026.1 1025.8 12.0
21/09:30pm 18.2 11.2 12.6 70 3.1 ESE 41 48 22 26 1026.2 1025.9 12.0
21/09:00pm 17.5 12.1 12.8 74 2.6 SE 33 41 18 22 1026.4 1026.1 12.0
21/08:38pm 18.1 10.9 13.0 72 2.9 ESE 43 61 23 33 1025.8 1025.5 12.0
21/08:30pm 18.4 11.7 12.4 68 3.4 ESE 39 46 21 25 1026.2 1025.9 12.0
21/08:00pm 18.4 11.8 12.6 69 3.2 ESE 39 46 21 25 1026.1 1025.8 12.0
21/07:30pm 18.3 10.4 10.9 62 4.0 ESE 43 50 23 27 1025.8 1025.5 12.0
21/07:00pm 18.2 10.3 11.3 64 3.8 ESE 44 52 24 28 1025.5 1025.2 12.0
21/06:30pm 18.3 10.6 11.4 64 3.8 ESE 43 50 23 27 1025.3 1025.0 12.0
21/06:00pm 18.3 10.6 11.6 65 3.7 ESE 43 50 23 27 1024.8 1024.5 12.0
21/05:30pm 18.3 10.9 12.3 68 3.3 ESE 43 54 23 29 1024.7 1024.4 12.0
21/05:00pm 18.5 10.7 11.8 65 3.7 ESE 44 50 24 27 1023.9 1023.6 12.0
21/04:30pm 18.6 11.0 11.9 65 3.7 ESE 43 50 23 27 1024.0 1023.7 12.0
21/04:00pm 18.7 11.4 12.7 68 3.4 ESE 43 50 23 27 1023.8 1023.5 12.0
21/03:30pm 18.9 12.3 13.7 72 3.0 ESE 41 50 22 27 1023.9 1023.6 12.0
21/03:00pm 18.0 13.7 14.3 79 2.1 ESE 30 44 16 24 1023.7 1023.4 12.0
21/02:30pm 17.1 10.5 13.8 81 1.9 SE 41 48 22 26 1023.7 1023.4 11.8
21/02:00pm 17.5 10.2 13.4 77 2.3 SE 44 56 24 30 1023.8 1023.5 11.6
21/01:30pm 17.9 12.3 14.4 80 2.0 SSE 37 46 20 25 1024.1 1023.8 11.4
21/01:12pm 16.5 10.9 14.5 88 1.1 SE 37 43 20 23 1024.3 1024.0 11.4
21/01:00pm 15.9 13.8 13.6 86 1.3 SE 17 22 9 12 1024.7 1024.4 9.8
21/12:30pm 16.6 13.0 12.9 79 2.1 ESE 24 30 13 16 1024.9 1024.6 1.6
21/12:00pm 18.3 11.9 12.1 67 3.4 SE 37 46 20 25 1024.9 1024.6 1.2
21/11:30am 18.4 11.9 13.9 75 2.6 SE 41 54 22 29 1024.9 1024.6 1.2
21/11:02am 17.3 12.2 14.8 85 1.5 SSE 35 46 19 25 1025.2 1024.9 1.2
21/11:00am 16.9 16.2 14.4 85 1.4 ESE 11 28 6 15 1025.5 1025.2 1.2
21/10:46am 16.1 13.7 12.5 79 2.0 E 17 24 9 13 1025.7 1025.4 1.2
21/10:30am 18.0 11.4 12.5 70 3.1 SE 39 46 21 25 1025.5 1025.2 0.0
21/10:00am 18.8 13.4 12.3 66 3.6 SE 32 43 17 23 1025.7 1025.4 0.0
21/09:30am 19.8 14.5 11.3 58 4.7 ESE 30 35 16 19 1026.0 1025.7 0.0
21/09:00am 20.4 14.9 11.9 58 4.7 ESE 32 41 17 22 1025.8 1025.5 0.0
21/08:30am 19.2 14.7 11.5 61 4.2 ESE 26 35 14 19 1025.8 1025.5 0.0
21/08:00am 18.6 13.1 10.7 60 4.3 ESE 30 32 16 17 1025.6 1025.3 0.0
21/07:30am 18.3 14.5 12.3 68 3.3 SSE 24 28 13 15 1025.5 1025.2 0.0
21/07:00am 19.7 14.4 11.2 58 4.7 ESE 30 35 16 19 1025.2 1024.9 0.0
21/06:30am 18.6 12.5 9.9 57 4.6 ESE 32 41 17 22 1024.7 1024.4 0.0
21/06:00am 18.3 12.0 9.6 57 4.6 ESE 33 43 18 23 1024.2 1023.9 0.0
21/05:30am 18.2 11.4 9.3 56 4.7 ESE 35 44 19 24 1023.8 1023.5 0.0
21/05:00am 18.3 11.0 8.8 54 4.9 ESE 37 43 20 23 1023.9 1023.6 0.0
21/04:30am 18.2 11.3 9.0 55 4.8 ESE 35 43 19 23 1023.6 1023.3 0.0
21/04:00am 18.2 9.9 9.3 56 4.7 ESE 43 50 23 27 1022.8 1022.6 0.0
21/03:30am 18.3 10.1 9.6 57 4.6 ESE 43 54 23 29 1022.8 1022.6 0.0
21/03:00am 18.4 9.2 8.1 51 5.3 ESE 46 54 25 29 1022.7 1022.5 0.0
21/02:30am 18.3 10.4 9.4 56 4.7 ESE 41 50 22 27 1023.2 1022.9 0.0
21/02:00am 18.6 11.1 10.7 60 4.3 ESE 41 50 22 27 1023.4 1023.1 0.0
21/01:30am 18.6 11.2 11.2 62 4.0 ESE 41 52 22 28 1023.5 1023.2 0.0
21/01:00am 18.5 11.7 10.6 60 4.3 ESE 37 44 20 24 1023.9 1023.6 0.0
21/12:30am 18.5 11.2 10.3 59 4.4 ESE 39 46 21 25 1023.9 1023.6 0.0
21/12:00am 18.5 11.2 10.3 59 4.4 ESE 39 44 21 24 1023.9 1023.6 0.0
 
Date/Time
EST
Temp
°C
App
Temp
°C
Dew
Point
Rel
Hum
%
Delta-T
°C
Wind Press
QNH
hPa
Press
MSL
hPa
Rain
since 9 am
mm
Dir
 
Spd
km/h
Gust
km/h
Spd
kts
Gust
kts
20/11:30pm 18.5 10.9 11.8 65 3.7 ESE 43 54 23 29 1023.7 1023.4 0.0
20/11:00pm 18.6 11.5 12.1 66 3.6 ESE 41 50 22 27 1023.7 1023.4 0.0
20/10:30pm 18.6 11.0 11.7 64 3.8 ESE 43 48 23 26 1023.6 1023.3 0.0

Other Formats:

Comma delimited format used in spreadsheet applications
http://www.bom.gov.au/fwo/IDQ60801/IDQ60801.94594.axf

JavaScript Object Notation format (JSON) in row-major order
http://www.bom.gov.au/fwo/IDQ60801/IDQ60801.94594.json